sensor_id;sensor_type;location;lat;lon;timestamp;temperature;humidity
59660;DHT22;45534;52.690;6.268;2023-07-20T00:00:54;14.90;99.90
59660;DHT22;45534;52.690;6.268;2023-07-20T00:03:20;14.90;99.90
59660;DHT22;45534;52.690;6.268;2023-07-20T00:05:51;14.90;99.90
59660;DHT22;45534;52.690;6.268;2023-07-20T00:08:18;14.90;99.90
59660;DHT22;45534;52.690;6.268;2023-07-20T00:10:44;14.90;99.90
59660;DHT22;45534;52.690;6.268;2023-07-20T00:13:11;14.90;99.90
59660;DHT22;45534;52.690;6.268;2023-07-20T00:15:36;14.90;99.90
59660;DHT22;45534;52.690;6.268;2023-07-20T00:18:04;14.90;99.90
59660;DHT22;45534;52.690;6.268;2023-07-20T00:20:29;14.90;99.90
59660;DHT22;45534;52.690;6.268;2023-07-20T00:22:55;14.90;99.90
59660;DHT22;45534;52.690;6.268;2023-07-20T00:25:23;14.90;99.90
59660;DHT22;45534;52.690;6.268;2023-07-20T00:27:50;14.90;99.90
59660;DHT22;45534;52.690;6.268;2023-07-20T00:30:16;14.90;99.90
59660;DHT22;45534;52.690;6.268;2023-07-20T00:32:44;14.90;99.90
59660;DHT22;45534;52.690;6.268;2023-07-20T00:35:10;14.90;99.90
59660;DHT22;45534;52.690;6.268;2023-07-20T00:37:37;14.90;99.90
59660;DHT22;45534;52.690;6.268;2023-07-20T00:40:03;14.80;99.90
59660;DHT22;45534;52.690;6.268;2023-07-20T00:42:33;14.90;99.90
59660;DHT22;45534;52.690;6.268;2023-07-20T00:44:59;14.80;99.90
59660;DHT22;45534;52.690;6.268;2023-07-20T00:47:26;14.90;99.90
59660;DHT22;45534;52.690;6.268;2023-07-20T00:49:52;14.90;99.90
59660;DHT22;45534;52.690;6.268;2023-07-20T00:52:20;14.90;99.90
59660;DHT22;45534;52.690;6.268;2023-07-20T00:54:47;14.90;99.90
59660;DHT22;45534;52.690;6.268;2023-07-20T00:57:14;14.80;99.90
59660;DHT22;45534;52.690;6.268;2023-07-20T00:59:41;14.80;99.90
59660;DHT22;45534;52.690;6.268;2023-07-20T01:02:07;14.80;99.90
59660;DHT22;45534;52.690;6.268;2023-07-20T01:04:33;14.80;99.90
59660;DHT22;45534;52.690;6.268;2023-07-20T01:07:22;14.80;99.90
59660;DHT22;45534;52.690;6.268;2023-07-20T01:12:52;14.80;99.90
59660;DHT22;45534;52.690;6.268;2023-07-20T01:15:18;14.70;99.90
59660;DHT22;45534;52.690;6.268;2023-07-20T01:17:44;14.60;99.90
59660;DHT22;45534;52.690;6.268;2023-07-20T01:20:14;14.70;99.90
59660;DHT22;45534;52.690;6.268;2023-07-20T01:30:50;14.60;99.90
59660;DHT22;45534;52.690;6.268;2023-07-20T01:33:19;14.60;99.90
59660;DHT22;45534;52.690;6.268;2023-07-20T01:35:54;14.50;99.90
59660;DHT22;45534;52.690;6.268;2023-07-20T01:38:24;14.50;99.90
59660;DHT22;45534;52.690;6.268;2023-07-20T01:40:50;14.40;99.90
59660;DHT22;45534;52.690;6.268;2023-07-20T01:43:17;14.40;99.90
59660;DHT22;45534;52.690;6.268;2023-07-20T01:45:43;14.40;99.90
59660;DHT22;45534;52.690;6.268;2023-07-20T01:48:09;14.30;99.90
59660;DHT22;45534;52.690;6.268;2023-07-20T01:50:35;14.30;99.90
59660;DHT22;45534;52.690;6.268;2023-07-20T01:53:01;14.30;99.90
59660;DHT22;45534;52.690;6.268;2023-07-20T01:55:27;14.20;99.90
59660;DHT22;45534;52.690;6.268;2023-07-20T01:57:53;14.20;99.90
59660;DHT22;45534;52.690;6.268;2023-07-20T02:00:19;14.10;99.90
59660;DHT22;45534;52.690;6.268;2023-07-20T02:02:46;14.10;99.90
59660;DHT22;45534;52.690;6.268;2023-07-20T02:05:12;14.00;99.90
59660;DHT22;45534;52.690;6.268;2023-07-20T02:07:38;14.00;99.90
59660;DHT22;45534;52.690;6.268;2023-07-20T02:10:05;14.00;99.90
59660;DHT22;45534;52.690;6.268;2023-07-20T02:12:31;14.00;99.90
59660;DHT22;45534;52.690;6.268;2023-07-20T02:14:56;13.90;99.90
59660;DHT22;45534;52.690;6.268;2023-07-20T02:17:22;13.90;99.90
59660;DHT22;45534;52.690;6.268;2023-07-20T02:19:52;13.90;99.90
59660;DHT22;45534;52.690;6.268;2023-07-20T02:22:18;13.80;99.90
59660;DHT22;45534;52.690;6.268;2023-07-20T02:24:43;13.80;99.90
59660;DHT22;45534;52.690;6.268;2023-07-20T02:27:09;13.80;99.90
59660;DHT22;45534;52.690;6.268;2023-07-20T02:29:35;13.80;99.90
59660;DHT22;45534;52.690;6.268;2023-07-20T02:32:02;13.70;99.90
59660;DHT22;45534;52.690;6.268;2023-07-20T02:34:27;13.70;99.90
59660;DHT22;45534;52.690;6.268;2023-07-20T02:36:54;13.70;99.90
59660;DHT22;45534;52.690;6.268;2023-07-20T02:39:22;13.70;99.90
59660;DHT22;45534;52.690;6.268;2023-07-20T02:41:47;13.70;99.90
59660;DHT22;45534;52.690;6.268;2023-07-20T02:44:16;13.70;99.90
59660;DHT22;45534;52.690;6.268;2023-07-20T02:46:42;13.60;99.90
59660;DHT22;45534;52.690;6.268;2023-07-20T02:49:07;13.60;99.90
59660;DHT22;45534;52.690;6.268;2023-07-20T02:51:33;13.70;99.90
59660;DHT22;45534;52.690;6.268;2023-07-20T02:53:59;13.60;99.90
59660;DHT22;45534;52.690;6.268;2023-07-20T02:56:24;13.60;99.90
59660;DHT22;45534;52.690;6.268;2023-07-20T02:58:50;13.50;99.90
59660;DHT22;45534;52.690;6.268;2023-07-20T03:01:16;13.50;99.90
59660;DHT22;45534;52.690;6.268;2023-07-20T03:03:45;13.50;99.90
59660;DHT22;45534;52.690;6.268;2023-07-20T03:06:14;13.50;99.90
59660;DHT22;45534;52.690;6.268;2023-07-20T03:08:43;13.50;99.90
59660;DHT22;45534;52.690;6.268;2023-07-20T03:11:18;13.50;99.90
59660;DHT22;45534;52.690;6.268;2023-07-20T03:13:44;13.40;99.90
59660;DHT22;45534;52.690;6.268;2023-07-20T03:16:11;13.40;99.90
59660;DHT22;45534;52.690;6.268;2023-07-20T03:18:38;13.40;99.90
59660;DHT22;45534;52.690;6.268;2023-07-20T03:21:04;13.40;99.90
59660;DHT22;45534;52.690;6.268;2023-07-20T03:23:30;13.40;99.90
59660;DHT22;45534;52.690;6.268;2023-07-20T03:25:56;13.40;99.90
59660;DHT22;45534;52.690;6.268;2023-07-20T03:28:22;13.40;99.90
59660;DHT22;45534;52.690;6.268;2023-07-20T03:30:56;13.30;99.90
59660;DHT22;45534;52.690;6.268;2023-07-20T03:33:25;13.30;99.90
59660;DHT22;45534;52.690;6.268;2023-07-20T03:35:52;13.30;99.90
59660;DHT22;45534;52.690;6.268;2023-07-20T03:38:18;13.30;99.90
59660;DHT22;45534;52.690;6.268;2023-07-20T03:40:51;13.30;99.90
59660;DHT22;45534;52.690;6.268;2023-07-20T03:43:17;13.30;99.90
59660;DHT22;45534;52.690;6.268;2023-07-20T03:45:43;13.30;99.90
59660;DHT22;45534;52.690;6.268;2023-07-20T03:48:09;13.20;99.90
59660;DHT22;45534;52.690;6.268;2023-07-20T03:50:35;13.20;99.90
59660;DHT22;45534;52.690;6.268;2023-07-20T03:53:00;13.20;99.90
59660;DHT22;45534;52.690;6.268;2023-07-20T03:55:26;13.20;99.90
59660;DHT22;45534;52.690;6.268;2023-07-20T03:57:51;13.20;99.90
59660;DHT22;45534;52.690;6.268;2023-07-20T04:00:18;13.20;99.90
59660;DHT22;45534;52.690;6.268;2023-07-20T04:02:43;13.20;99.90
59660;DHT22;45534;52.690;6.268;2023-07-20T04:05:09;13.10;99.90
59660;DHT22;45534;52.690;6.268;2023-07-20T04:07:35;13.10;99.90
59660;DHT22;45534;52.690;6.268;2023-07-20T04:10:01;13.10;99.90
59660;DHT22;45534;52.690;6.268;2023-07-20T04:12:26;13.10;99.90
59660;DHT22;45534;52.690;6.268;2023-07-20T04:14:52;13.00;99.90
59660;DHT22;45534;52.690;6.268;2023-07-20T04:17:18;13.00;99.90
59660;DHT22;45534;52.690;6.268;2023-07-20T04:19:44;13.00;99.90
59660;DHT22;45534;52.690;6.268;2023-07-20T04:22:09;13.00;99.90
59660;DHT22;45534;52.690;6.268;2023-07-20T04:24:35;13.00;99.90
59660;DHT22;45534;52.690;6.268;2023-07-20T04:27:01;13.00;99.90
59660;DHT22;45534;52.690;6.268;2023-07-20T04:29:27;13.00;99.90
59660;DHT22;45534;52.690;6.268;2023-07-20T04:31:52;13.00;99.90
59660;DHT22;45534;52.690;6.268;2023-07-20T04:34:18;13.00;99.90
59660;DHT22;45534;52.690;6.268;2023-07-20T04:36:44;13.00;99.90
59660;DHT22;45534;52.690;6.268;2023-07-20T04:39:10;13.10;99.90
59660;DHT22;45534;52.690;6.268;2023-07-20T04:41:36;13.10;99.90
59660;DHT22;45534;52.690;6.268;2023-07-20T04:44:01;13.20;99.90
59660;DHT22;45534;52.690;6.268;2023-07-20T04:46:27;13.20;99.90
59660;DHT22;45534;52.690;6.268;2023-07-20T04:48:53;13.20;99.90
59660;DHT22;45534;52.690;6.268;2023-07-20T04:51:18;13.20;99.90
59660;DHT22;45534;52.690;6.268;2023-07-20T04:53:49;13.20;99.90
59660;DHT22;45534;52.690;6.268;2023-07-20T04:56:14;13.30;99.90
59660;DHT22;45534;52.690;6.268;2023-07-20T04:58:40;13.30;99.90
59660;DHT22;45534;52.690;6.268;2023-07-20T05:01:06;13.30;99.90
59660;DHT22;45534;52.690;6.268;2023-07-20T05:03:31;13.30;99.90
59660;DHT22;45534;52.690;6.268;2023-07-20T05:05:57;13.30;99.90
59660;DHT22;45534;52.690;6.268;2023-07-20T05:08:23;13.30;99.90
59660;DHT22;45534;52.690;6.268;2023-07-20T05:10:49;13.40;99.90
59660;DHT22;45534;52.690;6.268;2023-07-20T05:13:15;13.40;99.90
59660;DHT22;45534;52.690;6.268;2023-07-20T05:15:41;13.40;99.90
59660;DHT22;45534;52.690;6.268;2023-07-20T05:18:06;13.40;99.90
59660;DHT22;45534;52.690;6.268;2023-07-20T05:20:34;13.50;99.90
59660;DHT22;45534;52.690;6.268;2023-07-20T05:23:00;13.50;99.90
59660;DHT22;45534;52.690;6.268;2023-07-20T05:25:27;13.50;99.90
59660;DHT22;45534;52.690;6.268;2023-07-20T05:27:52;13.50;99.90
59660;DHT22;45534;52.690;6.268;2023-07-20T05:30:20;13.60;99.90
59660;DHT22;45534;52.690;6.268;2023-07-20T05:32:46;13.60;99.90
59660;DHT22;45534;52.690;6.268;2023-07-20T05:35:17;13.70;99.90
59660;DHT22;45534;52.690;6.268;2023-07-20T05:37:44;13.70;99.90
59660;DHT22;45534;52.690;6.268;2023-07-20T05:40:09;13.80;99.90
59660;DHT22;45534;52.690;6.268;2023-07-20T05:42:38;13.80;99.90
59660;DHT22;45534;52.690;6.268;2023-07-20T05:45:04;13.90;99.90
59660;DHT22;45534;52.690;6.268;2023-07-20T05:47:30;13.90;99.90
59660;DHT22;45534;52.690;6.268;2023-07-20T05:49:56;13.90;99.90
59660;DHT22;45534;52.690;6.268;2023-07-20T05:52:22;14.00;99.90
59660;DHT22;45534;52.690;6.268;2023-07-20T05:54:47;14.10;99.90
59660;DHT22;45534;52.690;6.268;2023-07-20T05:57:13;14.10;99.90
59660;DHT22;45534;52.690;6.268;2023-07-20T05:59:39;14.20;99.90
59660;DHT22;45534;52.690;6.268;2023-07-20T06:02:06;14.20;99.90
59660;DHT22;45534;52.690;6.268;2023-07-20T06:04:35;14.20;99.90
59660;DHT22;45534;52.690;6.268;2023-07-20T06:07:00;14.30;99.90
59660;DHT22;45534;52.690;6.268;2023-07-20T06:09:26;14.30;99.90
59660;DHT22;45534;52.690;6.268;2023-07-20T06:11:53;14.30;99.90
59660;DHT22;45534;52.690;6.268;2023-07-20T06:14:18;14.40;99.90
59660;DHT22;45534;52.690;6.268;2023-07-20T06:16:44;14.50;99.90
59660;DHT22;45534;52.690;6.268;2023-07-20T06:19:10;14.50;99.90
59660;DHT22;45534;52.690;6.268;2023-07-20T06:21:38;14.50;99.90
59660;DHT22;45534;52.690;6.268;2023-07-20T06:24:03;14.60;99.90
59660;DHT22;45534;52.690;6.268;2023-07-20T06:26:30;14.60;99.90
59660;DHT22;45534;52.690;6.268;2023-07-20T06:28:56;14.70;99.90
59660;DHT22;45534;52.690;6.268;2023-07-20T06:31:22;14.80;99.90
59660;DHT22;45534;52.690;6.268;2023-07-20T06:33:48;14.90;99.90
59660;DHT22;45534;52.690;6.268;2023-07-20T06:36:17;14.90;99.90
59660;DHT22;45534;52.690;6.268;2023-07-20T06:38:43;15.00;99.90
59660;DHT22;45534;52.690;6.268;2023-07-20T06:41:08;15.20;99.90
59660;DHT22;45534;52.690;6.268;2023-07-20T06:43:34;15.30;99.90
59660;DHT22;45534;52.690;6.268;2023-07-20T06:46:00;15.50;99.90
59660;DHT22;45534;52.690;6.268;2023-07-20T06:48:26;15.70;99.90
59660;DHT22;45534;52.690;6.268;2023-07-20T06:50:52;15.80;99.90
59660;DHT22;45534;52.690;6.268;2023-07-20T06:53:18;15.90;99.90
59660;DHT22;45534;52.690;6.268;2023-07-20T06:55:43;16.00;99.90
59660;DHT22;45534;52.690;6.268;2023-07-20T06:58:10;16.00;99.90
59660;DHT22;45534;52.690;6.268;2023-07-20T07:00:36;16.00;99.90
59660;DHT22;45534;52.690;6.268;2023-07-20T07:03:02;16.10;99.90
59660;DHT22;45534;52.690;6.268;2023-07-20T07:05:28;16.10;99.90
59660;DHT22;45534;52.690;6.268;2023-07-20T07:07:53;16.20;99.90
59660;DHT22;45534;52.690;6.268;2023-07-20T07:10:19;16.30;99.90
59660;DHT22;45534;52.690;6.268;2023-07-20T07:12:45;16.30;99.90
59660;DHT22;45534;52.690;6.268;2023-07-20T07:15:11;16.50;99.90
59660;DHT22;45534;52.690;6.268;2023-07-20T07:17:36;16.50;99.90
59660;DHT22;45534;52.690;6.268;2023-07-20T07:20:03;16.60;99.90
59660;DHT22;45534;52.690;6.268;2023-07-20T07:22:29;16.80;99.90
59660;DHT22;45534;52.690;6.268;2023-07-20T07:24:56;16.90;99.90
59660;DHT22;45534;52.690;6.268;2023-07-20T07:27:21;17.10;99.90
59660;DHT22;45534;52.690;6.268;2023-07-20T07:29:47;17.30;99.90
59660;DHT22;45534;52.690;6.268;2023-07-20T07:32:14;17.30;99.90
59660;DHT22;45534;52.690;6.268;2023-07-20T07:34:40;17.20;99.90
59660;DHT22;45534;52.690;6.268;2023-07-20T07:37:06;17.10;99.90
59660;DHT22;45534;52.690;6.268;2023-07-20T07:39:31;17.00;99.90
59660;DHT22;45534;52.690;6.268;2023-07-20T07:42:00;16.90;99.90
59660;DHT22;45534;52.690;6.268;2023-07-20T07:44:26;16.80;99.90
59660;DHT22;45534;52.690;6.268;2023-07-20T07:46:51;16.80;99.90
59660;DHT22;45534;52.690;6.268;2023-07-20T07:49:17;16.90;99.90
59660;DHT22;45534;52.690;6.268;2023-07-20T07:51:45;17.10;99.90
59660;DHT22;45534;52.690;6.268;2023-07-20T07:54:10;17.30;99.90
59660;DHT22;45534;52.690;6.268;2023-07-20T07:56:36;17.40;99.90
59660;DHT22;45534;52.690;6.268;2023-07-20T07:59:02;17.40;99.90
59660;DHT22;45534;52.690;6.268;2023-07-20T08:01:28;17.40;99.90
59660;DHT22;45534;52.690;6.268;2023-07-20T08:03:54;17.40;99.90
59660;DHT22;45534;52.690;6.268;2023-07-20T08:06:20;17.40;99.90
59660;DHT22;45534;52.690;6.268;2023-07-20T08:08:45;17.30;99.90
59660;DHT22;45534;52.690;6.268;2023-07-20T08:11:11;17.30;99.90
59660;DHT22;45534;52.690;6.268;2023-07-20T08:13:37;17.20;99.90
59660;DHT22;45534;52.690;6.268;2023-07-20T08:16:03;17.20;99.90
59660;DHT22;45534;52.690;6.268;2023-07-20T08:18:28;17.10;99.90
59660;DHT22;45534;52.690;6.268;2023-07-20T08:20:54;17.10;99.90
59660;DHT22;45534;52.690;6.268;2023-07-20T08:23:20;17.10;99.90
59660;DHT22;45534;52.690;6.268;2023-07-20T08:25:46;17.20;99.90
59660;DHT22;45534;52.690;6.268;2023-07-20T08:28:13;17.20;99.90
59660;DHT22;45534;52.690;6.268;2023-07-20T08:30:47;17.40;99.90
59660;DHT22;45534;52.690;6.268;2023-07-20T08:33:14;17.50;99.90
59660;DHT22;45534;52.690;6.268;2023-07-20T08:35:40;17.60;99.90
59660;DHT22;45534;52.690;6.268;2023-07-20T08:38:06;17.70;99.90
59660;DHT22;45534;52.690;6.268;2023-07-20T08:40:35;17.70;99.90
59660;DHT22;45534;52.690;6.268;2023-07-20T08:43:04;17.70;99.90
59660;DHT22;45534;52.690;6.268;2023-07-20T08:45:33;17.80;99.90
59660;DHT22;45534;52.690;6.268;2023-07-20T08:48:01;17.80;99.90
59660;DHT22;45534;52.690;6.268;2023-07-20T08:50:30;17.90;99.90
59660;DHT22;45534;52.690;6.268;2023-07-20T08:52:58;18.00;99.90
59660;DHT22;45534;52.690;6.268;2023-07-20T08:55:26;18.10;99.90
59660;DHT22;45534;52.690;6.268;2023-07-20T08:57:54;18.30;99.90
59660;DHT22;45534;52.690;6.268;2023-07-20T09:00:21;18.40;99.90
59660;DHT22;45534;52.690;6.268;2023-07-20T09:02:52;18.60;99.90
59660;DHT22;45534;52.690;6.268;2023-07-20T09:05:19;18.80;99.90
59660;DHT22;45534;52.690;6.268;2023-07-20T09:07:45;18.80;99.90
59660;DHT22;45534;52.690;6.268;2023-07-20T09:10:11;18.80;99.90
59660;DHT22;45534;52.690;6.268;2023-07-20T09:12:40;18.80;99.90
59660;DHT22;45534;52.690;6.268;2023-07-20T09:15:07;18.80;99.90
59660;DHT22;45534;52.690;6.268;2023-07-20T09:17:33;18.80;99.90
59660;DHT22;45534;52.690;6.268;2023-07-20T09:20:03;18.70;99.90
59660;DHT22;45534;52.690;6.268;2023-07-20T09:22:33;18.70;99.90
59660;DHT22;45534;52.690;6.268;2023-07-20T09:24:59;18.80;99.90
59660;DHT22;45534;52.690;6.268;2023-07-20T09:27:35;18.90;99.90
59660;DHT22;45534;52.690;6.268;2023-07-20T09:30:02;19.00;99.90
59660;DHT22;45534;52.690;6.268;2023-07-20T09:32:27;19.00;99.90
59660;DHT22;45534;52.690;6.268;2023-07-20T09:34:53;19.00;99.90
59660;DHT22;45534;52.690;6.268;2023-07-20T09:37:22;19.00;99.90
59660;DHT22;45534;52.690;6.268;2023-07-20T09:39:51;19.10;99.90
59660;DHT22;45534;52.690;6.268;2023-07-20T09:42:17;19.20;99.90
59660;DHT22;45534;52.690;6.268;2023-07-20T09:44:44;19.30;99.90
59660;DHT22;45534;52.690;6.268;2023-07-20T09:47:10;19.50;99.90
59660;DHT22;45534;52.690;6.268;2023-07-20T09:49:42;19.60;99.90
59660;DHT22;45534;52.690;6.268;2023-07-20T09:52:11;19.70;99.90
59660;DHT22;45534;52.690;6.268;2023-07-20T09:54:38;19.90;99.90
59660;DHT22;45534;52.690;6.268;2023-07-20T09:57:06;19.90;99.90
59660;DHT22;45534;52.690;6.268;2023-07-20T09:59:32;19.80;99.90
59660;DHT22;45534;52.690;6.268;2023-07-20T10:02:01;19.90;99.90
59660;DHT22;45534;52.690;6.268;2023-07-20T10:04:29;20.00;99.90
59660;DHT22;45534;52.690;6.268;2023-07-20T10:06:55;20.10;99.90
59660;DHT22;45534;52.690;6.268;2023-07-20T10:09:24;20.00;99.90
59660;DHT22;45534;52.690;6.268;2023-07-20T10:11:54;19.90;99.90
59660;DHT22;45534;52.690;6.268;2023-07-20T10:14:21;19.80;99.90
59660;DHT22;45534;52.690;6.268;2023-07-20T10:16:50;19.50;99.90
59660;DHT22;45534;52.690;6.268;2023-07-20T10:19:23;19.20;99.90
59660;DHT22;45534;52.690;6.268;2023-07-20T10:22:00;18.90;99.90
59660;DHT22;45534;52.690;6.268;2023-07-20T10:24:28;18.70;99.90
59660;DHT22;45534;52.690;6.268;2023-07-20T10:26:55;18.50;99.90
59660;DHT22;45534;52.690;6.268;2023-07-20T10:29:22;18.50;99.90
59660;DHT22;45534;52.690;6.268;2023-07-20T10:31:51;18.50;99.90
59660;DHT22;45534;52.690;6.268;2023-07-20T10:34:17;18.50;99.90
59660;DHT22;45534;52.690;6.268;2023-07-20T10:36:46;18.60;99.90
59660;DHT22;45534;52.690;6.268;2023-07-20T10:39:43;18.70;99.90
59660;DHT22;45534;52.690;6.268;2023-07-20T10:42:10;18.90;99.90
59660;DHT22;45534;52.690;6.268;2023-07-20T10:44:41;19.10;99.90
59660;DHT22;45534;52.690;6.268;2023-07-20T10:47:12;19.30;99.90
59660;DHT22;45534;52.690;6.268;2023-07-20T10:50:10;19.40;99.90
59660;DHT22;45534;52.690;6.268;2023-07-20T10:52:40;19.40;99.90
59660;DHT22;45534;52.690;6.268;2023-07-20T10:55:15;19.40;99.90
59660;DHT22;45534;52.690;6.268;2023-07-20T10:57:41;19.40;99.90
59660;DHT22;45534;52.690;6.268;2023-07-20T11:00:12;19.60;99.90
59660;DHT22;45534;52.690;6.268;2023-07-20T11:02:46;19.70;99.90
59660;DHT22;45534;52.690;6.268;2023-07-20T11:05:35;19.90;99.90
59660;DHT22;45534;52.690;6.268;2023-07-20T11:08:04;20.30;99.90
59660;DHT22;45534;52.690;6.268;2023-07-20T11:10:30;20.60;99.90
59660;DHT22;45534;52.690;6.268;2023-07-20T11:13:18;20.80;99.90
59660;DHT22;45534;52.690;6.268;2023-07-20T11:16:02;21.00;99.90
59660;DHT22;45534;52.690;6.268;2023-07-20T11:18:33;21.00;99.90
59660;DHT22;45534;52.690;6.268;2023-07-20T11:21:01;21.00;99.90
59660;DHT22;45534;52.690;6.268;2023-07-20T11:23:27;21.00;99.90
59660;DHT22;45534;52.690;6.268;2023-07-20T11:25:54;21.00;99.90
59660;DHT22;45534;52.690;6.268;2023-07-20T11:28:20;21.00;99.90
59660;DHT22;45534;52.690;6.268;2023-07-20T11:30:52;21.00;99.90
59660;DHT22;45534;52.690;6.268;2023-07-20T11:33:18;21.00;99.90
59660;DHT22;45534;52.690;6.268;2023-07-20T11:35:48;20.90;99.90
59660;DHT22;45534;52.690;6.268;2023-07-20T11:38:14;20.90;99.90
59660;DHT22;45534;52.690;6.268;2023-07-20T11:40:45;20.50;99.90
59660;DHT22;45534;52.690;6.268;2023-07-20T11:43:14;20.30;99.90
59660;DHT22;45534;52.690;6.268;2023-07-20T11:45:40;20.20;99.90
59660;DHT22;45534;52.690;6.268;2023-07-20T11:48:06;20.00;99.90
59660;DHT22;45534;52.690;6.268;2023-07-20T11:50:32;20.10;99.90
59660;DHT22;45534;52.690;6.268;2023-07-20T11:52:57;20.10;99.90
59660;DHT22;45534;52.690;6.268;2023-07-20T11:55:23;20.20;99.90
59660;DHT22;45534;52.690;6.268;2023-07-20T11:58:03;20.20;99.90
59660;DHT22;45534;52.690;6.268;2023-07-20T12:00:29;20.10;99.90
59660;DHT22;45534;52.690;6.268;2023-07-20T12:02:54;20.20;99.90
59660;DHT22;45534;52.690;6.268;2023-07-20T12:05:22;20.20;99.90
59660;DHT22;45534;52.690;6.268;2023-07-20T12:07:50;20.30;99.90
59660;DHT22;45534;52.690;6.268;2023-07-20T12:10:27;20.40;99.90
59660;DHT22;45534;52.690;6.268;2023-07-20T12:12:54;20.50;99.90
59660;DHT22;45534;52.690;6.268;2023-07-20T12:15:25;20.80;99.90
59660;DHT22;45534;52.690;6.268;2023-07-20T12:17:59;21.30;99.90
59660;DHT22;45534;52.690;6.268;2023-07-20T12:20:31;21.80;99.90
59660;DHT22;45534;52.690;6.268;2023-07-20T12:23:01;22.00;99.90
59660;DHT22;45534;52.690;6.268;2023-07-20T12:25:38;22.20;99.90
59660;DHT22;45534;52.690;6.268;2023-07-20T12:28:09;22.40;96.80
59660;DHT22;45534;52.690;6.268;2023-07-20T12:30:36;22.50;99.90
59660;DHT22;45534;52.690;6.268;2023-07-20T12:33:02;22.90;99.40
59660;DHT22;45534;52.690;6.268;2023-07-20T12:35:29;23.00;98.20
59660;DHT22;45534;52.690;6.268;2023-07-20T12:37:55;23.20;98.40
59660;DHT22;45534;52.690;6.268;2023-07-20T12:40:21;23.50;97.30
59660;DHT22;45534;52.690;6.268;2023-07-20T12:42:46;23.80;96.50
59660;DHT22;45534;52.690;6.268;2023-07-20T12:45:13;24.00;96.10
59660;DHT22;45534;52.690;6.268;2023-07-20T12:47:39;23.80;96.20
59660;DHT22;45534;52.690;6.268;2023-07-20T12:50:05;23.50;97.30
59660;DHT22;45534;52.690;6.268;2023-07-20T12:52:35;23.40;98.00
59660;DHT22;45534;52.690;6.268;2023-07-20T12:55:02;23.40;98.80
59660;DHT22;45534;52.690;6.268;2023-07-20T12:57:27;23.60;98.50
59660;DHT22;45534;52.690;6.268;2023-07-20T12:59:53;23.80;96.70
59660;DHT22;45534;52.690;6.268;2023-07-20T13:02:19;24.00;96.70
59660;DHT22;45534;52.690;6.268;2023-07-20T13:04:44;24.30;96.10
59660;DHT22;45534;52.690;6.268;2023-07-20T13:07:10;24.40;95.20
59660;DHT22;45534;52.690;6.268;2023-07-20T13:09:39;24.50;93.90
59660;DHT22;45534;52.690;6.268;2023-07-20T13:12:05;24.50;91.50
59660;DHT22;45534;52.690;6.268;2023-07-20T13:14:30;24.20;88.60
59660;DHT22;45534;52.690;6.268;2023-07-20T13:16:56;23.70;88.30
59660;DHT22;45534;52.690;6.268;2023-07-20T13:19:22;23.30;90.90
59660;DHT22;45534;52.690;6.268;2023-07-20T13:21:48;23.00;90.10
59660;DHT22;45534;52.690;6.268;2023-07-20T13:24:13;22.90;91.10
59660;DHT22;45534;52.690;6.268;2023-07-20T13:26:39;22.80;91.00
59660;DHT22;45534;52.690;6.268;2023-07-20T13:29:05;22.90;91.10
59660;DHT22;45534;52.690;6.268;2023-07-20T13:31:31;22.90;91.30
59660;DHT22;45534;52.690;6.268;2023-07-20T13:33:57;23.10;92.00
59660;DHT22;45534;52.690;6.268;2023-07-20T13:36:24;23.40;92.30
59660;DHT22;45534;52.690;6.268;2023-07-20T13:38:49;23.50;92.60
59660;DHT22;45534;52.690;6.268;2023-07-20T13:41:15;23.40;91.00
59660;DHT22;45534;52.690;6.268;2023-07-20T13:43:42;23.20;92.80
59660;DHT22;45534;52.690;6.268;2023-07-20T13:46:08;23.40;94.20
59660;DHT22;45534;52.690;6.268;2023-07-20T13:48:33;23.90;92.10
59660;DHT22;45534;52.690;6.268;2023-07-20T13:50:59;24.10;91.60
59660;DHT22;45534;52.690;6.268;2023-07-20T13:53:24;24.10;92.60
59660;DHT22;45534;52.690;6.268;2023-07-20T13:55:50;24.00;91.50
59660;DHT22;45534;52.690;6.268;2023-07-20T13:58:17;23.70;91.10
59660;DHT22;45534;52.690;6.268;2023-07-20T14:00:43;23.20;92.30
59660;DHT22;45534;52.690;6.268;2023-07-20T14:03:09;22.90;92.40
59660;DHT22;45534;52.690;6.268;2023-07-20T14:05:35;22.80;93.00
59660;DHT22;45534;52.690;6.268;2023-07-20T14:08:00;22.80;93.30
59660;DHT22;45534;52.690;6.268;2023-07-20T14:10:26;22.90;92.60
59660;DHT22;45534;52.690;6.268;2023-07-20T14:12:52;23.00;91.90
59660;DHT22;45534;52.690;6.268;2023-07-20T14:15:17;23.00;90.60
59660;DHT22;45534;52.690;6.268;2023-07-20T14:17:44;22.80;89.80
59660;DHT22;45534;52.690;6.268;2023-07-20T14:20:11;22.80;90.20
59660;DHT22;45534;52.690;6.268;2023-07-20T14:22:36;22.90;89.90
59660;DHT22;45534;52.690;6.268;2023-07-20T14:25:02;23.10;88.80
59660;DHT22;45534;52.690;6.268;2023-07-20T14:27:28;23.50;87.70
59660;DHT22;45534;52.690;6.268;2023-07-20T14:29:54;23.60;86.90
59660;DHT22;45534;52.690;6.268;2023-07-20T14:32:20;23.80;87.10
59660;DHT22;45534;52.690;6.268;2023-07-20T14:34:46;23.80;81.70
59660;DHT22;45534;52.690;6.268;2023-07-20T14:37:11;23.70;79.20
59660;DHT22;45534;52.690;6.268;2023-07-20T14:39:38;23.70;80.10
59660;DHT22;45534;52.690;6.268;2023-07-20T14:42:04;23.80;78.40
59660;DHT22;45534;52.690;6.268;2023-07-20T14:44:30;23.90;77.40
59660;DHT22;45534;52.690;6.268;2023-07-20T14:46:55;23.90;77.60
59660;DHT22;45534;52.690;6.268;2023-07-20T14:49:21;23.80;79.40
59660;DHT22;45534;52.690;6.268;2023-07-20T14:51:47;24.00;81.70
59660;DHT22;45534;52.690;6.268;2023-07-20T14:54:13;24.30;79.90
59660;DHT22;45534;52.690;6.268;2023-07-20T14:56:39;24.40;75.80
59660;DHT22;45534;52.690;6.268;2023-07-20T14:59:13;24.50;76.80
59660;DHT22;45534;52.690;6.268;2023-07-20T15:01:39;24.50;75.40
59660;DHT22;45534;52.690;6.268;2023-07-20T15:04:05;24.60;74.10
59660;DHT22;45534;52.690;6.268;2023-07-20T15:06:30;24.60;73.10
59660;DHT22;45534;52.690;6.268;2023-07-20T15:08:57;24.90;72.30
59660;DHT22;45534;52.690;6.268;2023-07-20T15:11:23;25.20;71.20
59660;DHT22;45534;52.690;6.268;2023-07-20T15:13:49;25.20;70.00
59660;DHT22;45534;52.690;6.268;2023-07-20T15:16:15;24.80;68.00
59660;DHT22;45534;52.690;6.268;2023-07-20T15:18:40;24.60;69.50
59660;DHT22;45534;52.690;6.268;2023-07-20T15:21:06;24.20;70.80
59660;DHT22;45534;52.690;6.268;2023-07-20T15:23:32;23.90;75.70
59660;DHT22;45534;52.690;6.268;2023-07-20T15:25:57;23.70;74.40
59660;DHT22;45534;52.690;6.268;2023-07-20T15:28:23;23.70;73.90
59660;DHT22;45534;52.690;6.268;2023-07-20T15:30:49;23.70;73.80
59660;DHT22;45534;52.690;6.268;2023-07-20T15:33:16;23.70;74.00
59660;DHT22;45534;52.690;6.268;2023-07-20T15:35:42;23.80;74.80
59660;DHT22;45534;52.690;6.268;2023-07-20T15:38:08;23.90;73.80
59660;DHT22;45534;52.690;6.268;2023-07-20T15:40:34;23.80;75.10